createdAt,value
2019-05-20T00:01:12.436Z,15.30
2019-05-20T00:03:40.912Z,20.73
2019-05-20T00:06:09.897Z,16.27
2019-05-20T00:08:38.777Z,14.63
2019-05-20T00:11:07.511Z,15.63
2019-05-20T00:13:36.003Z,16.10
2019-05-20T00:16:04.527Z,15.27
2019-05-20T00:18:33.084Z,16.77
2019-05-20T00:21:01.563Z,15.40
2019-05-20T00:23:30.005Z,15.40
2019-05-20T00:25:58.487Z,14.17
2019-05-20T00:28:26.928Z,14.50
2019-05-20T00:30:55.416Z,15.00
2019-05-20T00:33:23.851Z,15.70
2019-05-20T00:35:52.283Z,14.67
2019-05-20T00:38:20.793Z,14.70
2019-05-20T00:40:49.397Z,14.17
2019-05-20T00:43:17.841Z,13.73
2019-05-20T00:45:46.307Z,14.87
2019-05-20T00:48:14.772Z,13.93
2019-05-20T00:50:43.205Z,15.13
2019-05-20T00:53:11.644Z,14.33
2019-05-20T00:55:40.536Z,15.07
2019-05-20T00:58:08.973Z,14.83
2019-05-20T01:00:37.999Z,14.03
2019-05-20T01:03:06.452Z,14.70
2019-05-20T01:05:34.915Z,16.70
2019-05-20T01:08:03.383Z,15.37
2019-05-20T01:10:31.842Z,15.07
2019-05-20T01:13:00.324Z,14.63
2019-05-20T01:15:28.767Z,14.70
2019-05-20T01:17:57.209Z,15.30
2019-05-20T01:20:25.681Z,16.70
2019-05-20T01:22:54.126Z,15.70
2019-05-20T01:25:22.578Z,16.77
2019-05-20T01:27:51.065Z,15.53
2019-05-20T01:30:19.931Z,16.07
2019-05-20T01:32:48.418Z,16.30
2019-05-20T01:35:16.967Z,15.97
2019-05-20T01:37:45.405Z,15.67
2019-05-20T01:40:14.404Z,16.53
2019-05-20T01:42:42.843Z,14.90
2019-05-20T01:45:12.919Z,16.37
2019-05-20T01:47:41.373Z,17.33
2019-05-20T01:50:10.072Z,16.80
2019-05-20T01:52:38.557Z,15.20
2019-05-20T01:55:07.763Z,14.77
2019-05-20T01:57:36.249Z,14.70
2019-05-20T02:00:08.063Z,16.30
2019-05-20T02:02:36.525Z,15.50
2019-05-20T02:05:06.620Z,15.73
2019-05-20T02:07:35.131Z,15.50
2019-05-20T02:10:04.741Z,14.77
2019-05-20T02:12:33.191Z,14.90
2019-05-20T02:15:09.552Z,15.13
2019-05-20T02:17:37.986Z,14.70
2019-05-20T02:20:08.415Z,14.87
2019-05-20T02:22:36.846Z,14.77
2019-05-20T02:25:06.056Z,15.87
2019-05-20T02:27:34.499Z,15.20
2019-05-20T02:30:02.982Z,15.23
2019-05-20T02:32:31.424Z,14.83
2019-05-20T02:34:59.925Z,15.90
2019-05-20T02:37:28.415Z,16.87
2019-05-20T02:39:56.862Z,16.83
2019-05-20T02:42:25.317Z,16.03
2019-05-20T02:44:53.761Z,16.07
2019-05-20T02:47:22.221Z,15.43
2019-05-20T02:49:50.679Z,16.67
2019-05-20T02:52:19.151Z,16.03
2019-05-20T02:54:47.624Z,16.20
2019-05-20T02:57:16.101Z,17.27
2019-05-20T02:59:44.533Z,17.63
2019-05-20T03:02:13.013Z,17.70
2019-05-20T03:04:41.470Z,16.13
2019-05-20T03:07:09.900Z,16.47
2019-05-20T03:09:38.363Z,16.60
2019-05-20T03:12:06.836Z,18.90
2019-05-20T03:14:35.297Z,17.17
2019-05-20T03:17:03.756Z,17.43
2019-05-20T03:19:32.240Z,18.10
2019-05-20T03:22:00.692Z,18.67
2019-05-20T03:24:29.143Z,16.77
2019-05-20T03:26:57.601Z,17.47
2019-05-20T03:29:26.140Z,17.10
2019-05-20T03:31:54.603Z,18.07
2019-05-20T03:34:43.682Z,17.83
2019-05-20T03:36:53.237Z,16.87
2019-05-20T03:39:21.689Z,17.27
2019-05-20T03:41:50.160Z,16.30
2019-05-20T03:44:18.627Z,16.07
2019-05-20T03:46:47.069Z,16.40
2019-05-20T03:49:16.321Z,17.80
2019-05-20T03:51:44.831Z,20.77
2019-05-20T03:54:13.306Z,19.90
2019-05-20T03:56:41.771Z,18.03
2019-05-20T03:59:10.216Z,16.63
2019-05-20T04:01:38.667Z,18.10
2019-05-20T04:04:07.104Z,17.97
2019-05-20T04:06:35.586Z,19.83
2019-05-20T04:09:05.971Z,17.70
2019-05-20T04:11:34.447Z,17.03
2019-05-20T04:14:02.955Z,17.27
2019-05-20T04:16:31.393Z,17.57
2019-05-20T04:19:03.822Z,17.30
2019-05-20T04:21:32.460Z,17.37
2019-05-20T04:24:02.026Z,17.40
2019-05-20T04:26:30.743Z,16.80
2019-05-20T04:28:59.214Z,17.40
2019-05-20T04:31:27.746Z,18.10
2019-05-20T04:33:56.179Z,16.57
2019-05-20T04:36:24.643Z,18.43
2019-05-20T04:38:54.776Z,16.20
2019-05-20T04:41:23.216Z,15.47
2019-05-20T04:43:51.683Z,14.63
2019-05-20T04:46:20.156Z,15.77
2019-05-20T04:48:48.587Z,15.57
2019-05-20T04:51:17.084Z,16.93
2019-05-20T04:53:45.555Z,16.00
2019-05-20T04:56:14.002Z,15.87
2019-05-20T04:58:42.471Z,15.37
2019-05-20T05:01:10.956Z,15.27
2019-05-20T05:03:39.419Z,16.53
2019-05-20T05:06:07.870Z,15.33
2019-05-20T05:08:36.311Z,14.70
2019-05-20T05:11:04.783Z,16.70
2019-05-20T05:13:33.256Z,15.80
2019-05-20T05:16:01.771Z,14.50
2019-05-20T05:18:30.325Z,15.73
2019-05-20T05:20:58.797Z,16.03
2019-05-20T05:23:27.332Z,16.13
2019-05-20T05:25:55.848Z,16.53
2019-05-20T05:28:24.522Z,13.90
2019-05-20T05:30:53.487Z,15.60
2019-05-20T05:33:21.992Z,14.93
2019-05-20T05:35:53.561Z,14.63
2019-05-20T05:38:21.254Z,14.17
2019-05-20T05:40:49.750Z,15.40
2019-05-20T05:43:18.181Z,14.20
2019-05-20T05:45:46.688Z,14.20
2019-05-20T05:48:16.719Z,14.40
2019-05-20T05:50:45.204Z,15.37
2019-05-20T05:53:13.665Z,14.20
2019-05-20T05:55:42.125Z,13.60
2019-05-20T05:58:10.612Z,13.03
2019-05-20T06:00:39.047Z,14.00
2019-05-20T06:03:07.532Z,14.10
2019-05-20T06:05:35.986Z,13.87
2019-05-20T06:08:04.465Z,13.83
2019-05-20T06:10:35.773Z,13.40
2019-05-20T06:13:03.327Z,14.97
2019-05-20T06:15:31.710Z,13.40
2019-05-20T06:18:00.186Z,14.93
2019-05-20T06:20:28.651Z,13.07
2019-05-20T06:22:57.135Z,12.97
2019-05-20T06:25:25.574Z,13.13
2019-05-20T06:27:54.040Z,13.50
2019-05-20T06:30:25.582Z,12.77
2019-05-20T06:32:54.053Z,13.67
2019-05-20T06:35:22.537Z,12.80
2019-05-20T06:37:52.899Z,13.20
2019-05-20T06:40:22.342Z,12.97
2019-05-20T06:42:50.792Z,11.40
2019-05-20T06:45:19.326Z,12.20
2019-05-20T06:47:47.785Z,12.10
2019-05-20T06:50:16.471Z,11.60
2019-05-20T06:52:44.916Z,10.80
2019-05-20T06:55:13.628Z,10.90
2019-05-20T06:57:42.066Z,11.33
2019-05-20T07:00:12.383Z,10.60
2019-05-20T07:02:40.872Z,10.63
2019-05-20T07:05:09.937Z,11.07
2019-05-20T07:07:38.391Z,10.23
2019-05-20T07:10:08.020Z,11.20
2019-05-20T07:12:41.105Z,11.03
2019-05-20T07:15:09.208Z,10.53
2019-05-20T07:17:37.696Z,8.83
2019-05-20T07:20:06.858Z,9.80
2019-05-20T07:22:53.943Z,9.50
2019-05-20T07:25:08.281Z,8.03
2019-05-20T07:27:36.724Z,12.03
2019-05-20T07:30:06.799Z,9.10
2019-05-20T07:32:35.260Z,8.40
2019-05-20T07:35:04.975Z,9.30
2019-05-20T07:37:33.476Z,9.57
2019-05-20T07:40:01.992Z,9.67
2019-05-20T07:42:30.562Z,8.63
2019-05-20T07:44:59.114Z,8.87
2019-05-20T07:47:27.566Z,8.27
2019-05-20T07:49:56.369Z,7.63
2019-05-20T07:52:26.141Z,8.60
2019-05-20T07:54:56.143Z,8.13
2019-05-20T07:57:27.667Z,8.50
2019-05-20T07:59:56.656Z,7.90
2019-05-20T08:02:25.976Z,7.00
2019-05-20T08:04:54.445Z,8.40
2019-05-20T08:07:30.039Z,7.90
2019-05-20T08:09:53.146Z,8.00
2019-05-20T08:12:21.597Z,7.00
2019-05-20T08:14:50.116Z,7.10
2019-05-20T08:17:18.579Z,7.90
2019-05-20T08:19:47.030Z,7.63
2019-05-20T08:22:15.471Z,6.77
2019-05-20T08:24:43.970Z,7.00
2019-05-20T08:27:12.430Z,6.67
2019-05-20T08:29:40.898Z,7.00
2019-05-20T08:32:09.352Z,7.27
2019-05-20T08:34:39.068Z,7.77
2019-05-20T08:37:08.201Z,7.47
2019-05-20T08:39:36.708Z,5.90
2019-05-20T08:42:05.201Z,5.60
2019-05-20T08:44:33.772Z,6.10
2019-05-20T08:47:02.250Z,5.83
2019-05-20T08:49:30.850Z,5.30
2019-05-20T08:51:59.346Z,6.60
2019-05-20T08:54:27.813Z,5.33
2019-05-20T08:56:56.309Z,5.73
2019-05-20T08:59:24.786Z,5.70
2019-05-20T09:01:53.263Z,5.27
2019-05-20T09:04:21.701Z,5.70
2019-05-20T09:06:50.164Z,5.50
2019-05-20T09:09:18.698Z,5.40
2019-05-20T09:11:48.080Z,5.57
2019-05-20T09:14:16.696Z,6.17
2019-05-20T09:16:45.169Z,6.10
2019-05-20T09:19:13.663Z,5.87
2019-05-20T09:21:42.175Z,6.00
2019-05-20T09:24:10.608Z,6.33
2019-05-20T09:26:39.088Z,5.70
2019-05-20T09:29:11.286Z,5.80
2019-05-20T09:31:38.156Z,5.07
2019-05-20T09:34:06.620Z,5.30
2019-05-20T09:36:35.173Z,5.73
2019-05-20T09:39:05.127Z,5.80
2019-05-20T09:41:33.617Z,5.77
2019-05-20T09:44:02.065Z,5.83
2019-05-20T09:46:30.588Z,5.63
2019-05-20T09:48:59.035Z,5.10
2019-05-20T09:51:27.514Z,6.07
2019-05-20T09:53:55.986Z,5.10
2019-05-20T09:56:26.157Z,6.43
2019-05-20T09:58:54.572Z,5.73
2019-05-20T10:01:23.040Z,6.40
2019-05-20T10:03:51.479Z,6.60
2019-05-20T10:06:20.805Z,5.60
2019-05-20T10:08:49.256Z,6.30
2019-05-20T10:11:17.694Z,6.23
2019-05-20T10:13:46.153Z,6.23
2019-05-20T10:16:14.619Z,5.80
2019-05-20T10:18:43.050Z,5.50
2019-05-20T10:21:11.513Z,5.83
2019-05-20T10:23:39.997Z,7.47
2019-05-20T10:26:08.471Z,6.00
2019-05-20T10:28:42.006Z,5.43
2019-05-20T10:31:07.106Z,5.80
2019-05-20T10:33:37.090Z,5.70
2019-05-20T10:36:05.768Z,5.40
2019-05-20T10:38:34.233Z,6.23
2019-05-20T10:41:02.688Z,5.40
2019-05-20T10:43:31.147Z,5.60
2019-05-20T10:45:59.632Z,4.87
2019-05-20T10:48:28.067Z,4.90
2019-05-20T10:50:56.540Z,5.20
2019-05-20T10:53:28.281Z,4.50
2019-05-20T10:55:55.269Z,6.50
2019-05-20T10:58:23.723Z,5.63
2019-05-20T11:01:02.298Z,5.27
2019-05-20T11:03:22.439Z,5.67
2019-05-20T11:05:50.939Z,4.87
2019-05-20T11:08:19.459Z,5.17
2019-05-20T11:10:47.910Z,5.50
2019-05-20T11:13:16.355Z,5.47
2019-05-20T11:15:44.825Z,5.20
2019-05-20T11:18:13.260Z,6.00
2019-05-20T11:20:41.723Z,6.27
2019-05-20T11:23:10.159Z,6.00
2019-05-20T11:25:38.650Z,5.63
2019-05-20T11:28:07.057Z,5.87
2019-05-20T11:30:35.518Z,6.93
2019-05-20T11:33:04.029Z,6.33
2019-05-20T11:35:32.459Z,6.93
2019-05-20T11:38:00.916Z,9.13
2019-05-20T11:40:29.373Z,5.83
2019-05-20T11:42:57.824Z,5.80
2019-05-20T11:45:26.253Z,5.83
2019-05-20T11:47:54.733Z,7.07
2019-05-20T11:50:23.320Z,7.57
2019-05-20T11:52:51.750Z,6.00
2019-05-20T11:55:20.212Z,6.73
2019-05-20T11:57:48.661Z,5.93
2019-05-20T12:00:17.373Z,6.23
2019-05-20T12:02:45.832Z,5.57
2019-05-20T12:05:14.445Z,6.20
2019-05-20T12:07:42.887Z,6.00
2019-05-20T12:10:11.900Z,6.10
2019-05-20T12:12:40.341Z,6.10
2019-05-20T12:15:09.613Z,6.87
2019-05-20T12:17:38.063Z,5.73
2019-05-20T12:20:10.540Z,6.07
2019-05-20T12:22:38.582Z,5.93
2019-05-20T12:25:08.094Z,6.87
2019-05-20T12:27:36.580Z,6.47
2019-05-20T12:30:07.266Z,7.10
2019-05-20T12:32:35.702Z,6.50
2019-05-20T12:35:06.754Z,6.70
2019-05-20T12:37:35.221Z,6.80
2019-05-20T12:40:07.493Z,6.30
2019-05-20T12:42:35.353Z,6.40
2019-05-20T12:45:05.577Z,6.37
2019-05-20T12:47:34.019Z,5.77
2019-05-20T12:50:02.490Z,6.77
2019-05-20T12:52:30.910Z,6.57
2019-05-20T12:55:08.111Z,6.60
2019-05-20T12:57:29.614Z,6.27
2019-05-20T12:59:58.073Z,7.37
2019-05-20T13:02:26.546Z,7.37
2019-05-20T13:04:55.020Z,7.03
2019-05-20T13:07:25.042Z,7.57
2019-05-20T13:09:53.501Z,6.90
2019-05-20T13:12:21.933Z,7.27
2019-05-20T13:14:50.411Z,7.93
2019-05-20T13:17:18.854Z,8.47
2019-05-20T13:19:47.331Z,7.13
2019-05-20T13:22:15.833Z,7.90
2019-05-20T13:24:44.349Z,7.00
2019-05-20T13:27:12.810Z,7.73
2019-05-20T13:29:41.288Z,7.43
2019-05-20T13:32:09.760Z,7.50
2019-05-20T13:34:38.233Z,6.60
2019-05-20T13:37:06.670Z,7.20
2019-05-20T13:39:36.764Z,6.63
2019-05-20T13:42:05.193Z,6.93
2019-05-20T13:44:33.672Z,7.13
2019-05-20T13:47:02.199Z,6.83
2019-05-20T13:49:30.666Z,7.50
2019-05-20T13:51:59.126Z,6.80
2019-05-20T13:54:27.610Z,7.57
2019-05-20T13:56:56.058Z,6.53
2019-05-20T13:59:25.520Z,6.77
2019-05-20T14:01:53.962Z,7.10
2019-05-20T14:04:22.480Z,7.40
2019-05-20T14:06:50.913Z,7.40
2019-05-20T14:09:19.397Z,7.63
2019-05-20T14:11:47.864Z,7.80
2019-05-20T14:14:16.319Z,7.97
2019-05-20T14:16:44.906Z,7.90
2019-05-20T14:19:13.381Z,8.70
2019-05-20T14:21:41.864Z,8.70
2019-05-20T14:24:10.312Z,7.70
2019-05-20T14:26:38.821Z,8.37
2019-05-20T14:29:07.267Z,9.37
2019-05-20T14:31:35.696Z,10.67
2019-05-20T14:34:04.241Z,9.70
2019-05-20T14:36:40.516Z,9.40
2019-05-20T14:39:03.855Z,9.93
2019-05-20T14:41:32.313Z,10.87
2019-05-20T14:44:00.779Z,10.87
2019-05-20T14:46:29.274Z,11.53
2019-05-20T14:49:02.256Z,9.87
2019-05-20T14:51:28.016Z,11.77
2019-05-20T14:53:56.462Z,16.60
2019-05-20T14:56:24.945Z,11.57
2019-05-20T14:58:54.488Z,13.13
2019-05-20T15:01:23.602Z,12.63
2019-05-20T15:03:52.051Z,13.13
2019-05-20T15:06:20.524Z,13.50
2019-05-20T15:08:49.025Z,13.70
2019-05-20T15:11:17.512Z,17.37
2019-05-20T15:13:45.959Z,13.90
2019-05-20T15:16:14.429Z,16.47
2019-05-20T15:18:42.883Z,18.97
2019-05-20T15:21:11.338Z,16.87
2019-05-20T15:23:39.802Z,23.00
2019-05-20T15:26:08.269Z,11.50
2019-05-20T15:28:36.767Z,8.30
2019-05-20T15:31:05.560Z,12.67
2019-05-20T15:33:33.981Z,6.73
2019-05-20T15:36:02.492Z,7.63
2019-05-20T15:38:30.936Z,7.90
2019-05-20T15:40:59.378Z,6.60
2019-05-20T15:43:27.846Z,7.23
2019-05-20T15:45:56.314Z,4.43
2019-05-20T15:48:24.783Z,5.43
2019-05-20T15:50:53.247Z,6.50
2019-05-20T15:53:21.717Z,6.73
2019-05-20T15:55:50.181Z,5.80
2019-05-20T15:58:18.615Z,5.40
2019-05-20T16:00:47.094Z,12.80
2019-05-20T16:03:15.544Z,5.40
2019-05-20T16:05:43.997Z,6.53
2019-05-20T16:08:12.495Z,7.80
2019-05-20T16:10:40.956Z,6.43
2019-05-20T16:13:09.404Z,6.63
2019-05-20T16:15:37.867Z,6.60
2019-05-20T16:18:06.342Z,6.27
2019-05-20T16:20:34.803Z,6.30
2019-05-20T16:23:03.285Z,7.20
2019-05-20T16:25:31.732Z,7.90
2019-05-20T16:28:00.166Z,7.50
2019-05-20T16:30:28.633Z,8.17
2019-05-20T16:32:57.091Z,7.73
2019-05-20T16:35:25.565Z,8.87
2019-05-20T16:37:54.020Z,9.10
2019-05-20T16:40:22.632Z,9.30
2019-05-20T16:42:51.075Z,8.30
2019-05-20T16:45:19.657Z,9.47
2019-05-20T16:47:48.122Z,10.40
2019-05-20T16:50:18.401Z,10.63
2019-05-20T16:52:46.835Z,10.33
2019-05-20T16:55:15.689Z,10.40
2019-05-20T16:57:44.161Z,10.63
2019-05-20T17:00:29.862Z,10.93
2019-05-20T17:02:44.414Z,12.83
2019-05-20T17:05:13.090Z,12.67
2019-05-20T17:07:41.556Z,14.23
2019-05-20T17:10:10.473Z,12.37
2019-05-20T17:12:38.978Z,11.90
2019-05-20T17:15:07.889Z,14.10
2019-05-20T17:17:36.374Z,14.43
2019-05-20T17:20:06.295Z,14.50
2019-05-20T17:22:34.744Z,15.17
2019-05-20T17:25:03.320Z,14.70
2019-05-20T17:27:31.775Z,15.27
2019-05-20T17:30:00.247Z,15.30
2019-05-20T17:32:28.751Z,16.80
2019-05-20T17:34:57.205Z,15.83
2019-05-20T17:37:25.711Z,13.67
2019-05-20T17:39:54.172Z,15.00
2019-05-20T17:42:22.698Z,13.37
2019-05-20T17:44:51.124Z,14.40
2019-05-20T17:47:19.585Z,12.43
2019-05-20T17:49:48.039Z,11.97
2019-05-20T17:52:16.512Z,11.93
2019-05-20T17:54:44.989Z,12.97
2019-05-20T17:57:13.447Z,14.23
2019-05-20T17:59:41.893Z,11.00
2019-05-20T18:02:11.756Z,12.03
2019-05-20T18:04:40.476Z,13.30
2019-05-20T18:07:08.930Z,13.27
2019-05-20T18:09:39.018Z,15.17
2019-05-20T18:12:07.474Z,13.57
2019-05-20T18:14:35.983Z,15.60
2019-05-20T18:17:04.484Z,16.70
2019-05-20T18:19:32.966Z,20.30
2019-05-20T18:22:01.447Z,19.33
2019-05-20T18:24:29.891Z,14.00
2019-05-20T18:26:58.378Z,17.50
2019-05-20T18:29:26.840Z,15.20
2019-05-20T18:31:55.302Z,12.20
2019-05-20T18:34:23.793Z,11.13
2019-05-20T18:36:52.282Z,12.80
2019-05-20T18:39:20.738Z,15.40
2019-05-20T18:41:49.221Z,17.60
2019-05-20T18:44:17.738Z,20.67
2019-05-20T18:46:46.206Z,23.13
2019-05-20T18:49:14.695Z,23.20
2019-05-20T18:51:43.169Z,20.97
2019-05-20T18:54:11.624Z,21.30
2019-05-20T18:56:40.282Z,24.47
2019-05-20T18:59:08.724Z,25.87
2019-05-20T19:01:50.634Z,24.70
2019-05-20T19:04:07.379Z,24.57
2019-05-20T19:06:35.846Z,31.30
2019-05-20T19:09:05.590Z,28.87
2019-05-20T19:11:34.020Z,29.77
2019-05-20T19:14:02.507Z,27.27
2019-05-20T19:16:30.957Z,24.20
2019-05-20T19:18:59.446Z,23.33
2019-05-20T19:21:27.946Z,24.80
2019-05-20T19:23:56.388Z,24.83
2019-05-20T19:26:25.619Z,25.60
2019-05-20T19:28:54.367Z,24.90
2019-05-20T19:31:22.860Z,22.57
2019-05-20T19:33:51.344Z,21.80
2019-05-20T19:36:19.804Z,18.70
2019-05-20T19:38:48.308Z,19.53
2019-05-20T19:41:16.775Z,20.27
2019-05-20T19:43:45.224Z,23.10
2019-05-20T19:46:13.696Z,21.27
2019-05-20T19:48:42.143Z,41.27
2019-05-20T19:51:10.592Z,21.67
2019-05-20T19:53:39.049Z,64.17
2019-05-20T19:56:07.529Z,17.87
2019-05-20T19:58:37.651Z,18.63
2019-05-20T20:01:06.134Z,17.97
2019-05-20T20:03:34.577Z,18.83
2019-05-20T20:06:03.062Z,17.50
2019-05-20T20:08:31.540Z,17.57
2019-05-20T20:11:00.016Z,17.47
2019-05-20T20:13:28.452Z,17.20
2019-05-20T20:15:56.922Z,17.73
2019-05-20T20:18:25.396Z,16.87
2019-05-20T20:20:53.890Z,17.37
2019-05-20T20:23:22.337Z,15.37
2019-05-20T20:25:50.814Z,15.30
2019-05-20T20:28:19.287Z,17.07
2019-05-20T20:30:47.785Z,18.33
2019-05-20T20:33:16.250Z,18.03
2019-05-20T20:35:44.687Z,19.80
2019-05-20T20:38:13.151Z,19.33
2019-05-20T20:40:41.650Z,20.63
2019-05-20T20:43:10.112Z,20.80
2019-05-20T20:45:38.558Z,18.53
2019-05-20T20:48:07.022Z,19.00
2019-05-20T20:50:35.586Z,17.13
2019-05-20T20:53:04.105Z,23.03
2019-05-20T20:55:32.575Z,17.97
2019-05-20T20:58:01.515Z,17.67
2019-05-20T21:00:29.980Z,17.00
2019-05-20T21:02:58.418Z,16.40
2019-05-20T21:05:26.886Z,15.83
2019-05-20T21:07:55.346Z,16.87
2019-05-20T21:10:25.244Z,15.97
2019-05-20T21:12:53.751Z,16.87
2019-05-20T21:15:22.182Z,15.57
2019-05-20T21:17:50.676Z,15.20
2019-05-20T21:20:19.126Z,17.17
2019-05-20T21:22:47.621Z,14.50
2019-05-20T21:25:16.063Z,14.73
2019-05-20T21:27:44.508Z,17.00
2019-05-20T21:30:13.338Z,16.90
2019-05-20T21:32:41.793Z,19.10
2019-05-20T21:35:10.343Z,17.43
2019-05-20T21:37:39.070Z,28.73
2019-05-20T21:40:08.206Z,18.53
2019-05-20T21:42:36.626Z,17.10
2019-05-20T21:45:06.831Z,19.93
2019-05-20T21:47:35.280Z,18.87
2019-05-20T21:50:03.834Z,18.10
2019-05-20T21:52:32.281Z,21.17
2019-05-20T21:55:00.742Z,18.53
2019-05-20T21:57:29.215Z,20.67
2019-05-20T21:59:57.705Z,21.07
2019-05-20T22:02:26.714Z,19.07
2019-05-20T22:04:55.404Z,21.60
2019-05-20T22:07:23.882Z,19.80
2019-05-20T22:09:53.063Z,19.83
2019-05-20T22:12:21.472Z,22.03
2019-05-20T22:14:49.910Z,22.47
2019-05-20T22:17:18.386Z,20.57
2019-05-20T22:19:46.851Z,19.90
2019-05-20T22:22:19.394Z,20.80
2019-05-20T22:24:48.410Z,20.93
2019-05-20T22:27:16.857Z,20.00
2019-05-20T22:29:45.301Z,18.97
2019-05-20T22:32:13.764Z,21.77
2019-05-20T22:34:53.181Z,21.87
2019-05-20T22:37:12.469Z,20.83
2019-05-20T22:39:40.904Z,22.27
2019-05-20T22:42:09.381Z,20.60
2019-05-20T22:44:37.828Z,18.80
2019-05-20T22:47:06.318Z,19.50
2019-05-20T22:49:34.790Z,21.00
2019-05-20T22:52:03.256Z,20.10
2019-05-20T22:54:31.723Z,19.30
2019-05-20T22:57:00.183Z,21.00
2019-05-20T22:59:28.654Z,22.37
2019-05-20T23:01:57.092Z,22.00
2019-05-20T23:04:25.557Z,28.83
2019-05-20T23:06:54.007Z,20.97
2019-05-20T23:09:24.097Z,20.37
2019-05-20T23:11:52.565Z,21.67
2019-05-20T23:14:21.024Z,27.47
2019-05-20T23:16:49.488Z,21.90
2019-05-20T23:19:17.962Z,20.97
2019-05-20T23:21:46.401Z,22.13
2019-05-20T23:24:14.867Z,21.37
2019-05-20T23:26:43.347Z,20.57
2019-05-20T23:29:11.793Z,22.20
2019-05-20T23:31:40.263Z,21.73
2019-05-20T23:34:12.699Z,22.40
2019-05-20T23:36:38.919Z,21.17
2019-05-20T23:39:07.654Z,20.90
2019-05-20T23:41:36.110Z,21.10
2019-05-20T23:44:04.594Z,21.53
2019-05-20T23:46:33.048Z,23.67
2019-05-20T23:49:01.515Z,25.40
2019-05-20T23:51:29.991Z,22.80
2019-05-20T23:53:58.434Z,24.37
2019-05-20T23:56:26.890Z,22.73
2019-05-20T23:58:55.349Z,23.63
